Terminal Aerodrome Forecast
Issued by NWS

Home | Current Version | Previous Version | Text Only | Print | Product List | Glossary On
Versions: 1 2 3 4 5 6 7 8 9 10 11 12 13 14 15 16 17 18 19 20 21 22 23 24 25 26
000
FTUS43 KICT 180534
TAFSLN
TAF
KSLN 180534Z 1806/1906 09006KT 1SM -SN SCT007 BKN015
      TEMPO 1806/1810 1/2SM SN OVC007
     FM181100 04008KT 2SM -FZDZSN BR BKN004 OVC009
     FM181500 06006KT 5SM BR BKN007 OVC015
     FM182000 32008KT P6SM SCT015 BKN050
     FM190300 VRB03KT 5SM BR SCT015 BKN025=

USA.gov is the U.S. government's official web portal to all federal, state and local government web resources and services.